UAL2103 MMSD-KIAH
Flight info
| Callsign | UAL2103 |
|---|---|
| Flight time | 2h 11m |
| Altitude | 37000 |
| Route | UKUXA1A UKUXA DCT NAPDA UJ10 TRC UJ20 NLD DCT LRD DCT NEHOW HTOWN3 |
| Aircraft | B738/M-SDE2E3FGHIRWXY/LB1 |
Departure
| Time | 2026-05-05 21:59 |
|---|---|
| Airport | Los Cabos International Airport (MMSD) |
Arrival
| Time | 2026-05-06 00:10 |
|---|---|
| Airport | George Bush Intercontinental Airport (KIAH) |
| Time | Latitude | Longitude | Altitude | Speed | Heading |
|---|---|---|---|---|---|
| 2026-05-05 21:32 | 23.15681 | -109.71778 | 369 ft | 0 kts | 81° |
| 2026-05-05 21:50 | 23.15678 | -109.71799 | 369 ft | 4 kts | 71° |
| 2026-05-05 21:51 | 23.15665 | -109.71824 | 369 ft | 4 kts | 41° |
| 2026-05-05 21:51 | 23.15645 | -109.71834 | 368 ft | 2 kts | 354° |
| 2026-05-05 21:51 | 23.15644 | -109.71834 | 368 ft | 0 kts | 353° |
| 2026-05-05 21:54 | 23.15648 | -109.71835 | 368 ft | 2 kts | 354° |
| 2026-05-05 21:54 | 23.15677 | -109.71837 | 369 ft | 5 kts | 356° |
| 2026-05-05 21:54 | 23.15711 | -109.71851 | 370 ft | 5 kts | 312° |
| 2026-05-05 21:54 | 23.15714 | -109.71858 | 370 ft | 0 kts | 298° |
| 2026-05-05 21:55 | 23.15719 | -109.71873 | 370 ft | 5 kts | 283° |
| 2026-05-05 21:55 | 23.15752 | -109.71928 | 371 ft | 14 kts | 341° |
| 2026-05-05 21:55 | 23.15873 | -109.71947 | 374 ft | 21 kts | 353° |
| 2026-05-05 21:56 | 23.16019 | -109.71965 | 377 ft | 21 kts | 354° |
| 2026-05-05 21:56 | 23.16163 | -109.71977 | 380 ft | 20 kts | 357° |
| 2026-05-05 21:56 | 23.16301 | -109.71991 | 383 ft | 20 kts | 354° |
| 2026-05-05 21:56 | 23.16433 | -109.72008 | 386 ft | 19 kts | 354° |
| 2026-05-05 21:57 | 23.16543 | -109.72019 | 388 ft | 10 kts | 354° |
| 2026-05-05 21:57 | 23.16605 | -109.72038 | 389 ft | 9 kts | 315° |
| 2026-05-05 21:57 | 23.16613 | -109.72105 | 389 ft | 9 kts | 264° |
| 2026-05-05 21:57 | 23.16591 | -109.72178 | 390 ft | 12 kts | 230° |
| 2026-05-05 21:58 | 23.16489 | -109.72223 | 388 ft | 21 kts | 179° |
| 2026-05-05 21:58 | 23.16194 | -109.72193 | 382 ft | 75 kts | 173° |
| 2026-05-05 21:58 | 23.15444 | -109.72105 | 364 ft | 138 kts | 173° |
| 2026-05-05 21:58 | 23.14356 | -109.71984 | 620 ft | 164 kts | 172° |
| 2026-05-05 21:59 | 23.13209 | -109.71815 | 1207 ft | 175 kts | 169° |
| 2026-05-05 21:59 | 23.11917 | -109.71599 | 1477 ft | 200 kts | 170° |
| 2026-05-05 21:59 | 23.10477 | -109.71305 | 1689 ft | 219 kts | 160° |
| 2026-05-05 21:59 | 23.09081 | -109.70527 | 2014 ft | 234 kts | 145° |
| 2026-05-05 22:00 | 23.07851 | -109.69238 | 2144 ft | 258 kts | 125° |
| 2026-05-05 22:00 | 23.07010 | -109.67481 | 2737 ft | 266 kts | 107° |
| 2026-05-05 22:00 | 23.06755 | -109.65495 | 3548 ft | 269 kts | 89° |
| 2026-05-05 22:00 | 23.07042 | -109.63483 | 4231 ft | 277 kts | 77° |
| 2026-05-05 22:01 | 23.07526 | -109.61430 | 4959 ft | 282 kts | 75° |
| 2026-05-05 22:01 | 23.08037 | -109.59373 | 5707 ft | 284 kts | 74° |
| 2026-05-05 22:01 | 23.08544 | -109.57281 | 6371 ft | 290 kts | 75° |
| 2026-05-05 22:01 | 23.09049 | -109.55143 | 7090 ft | 293 kts | 75° |
| 2026-05-05 22:02 | 23.09548 | -109.52980 | 7721 ft | 298 kts | 75° |
| 2026-05-05 22:02 | 23.10043 | -109.50791 | 7965 ft | 300 kts | 76° |
| 2026-05-05 22:02 | 23.10541 | -109.48568 | 7966 ft | 302 kts | 76° |
| 2026-05-05 22:02 | 23.11036 | -109.46356 | 7979 ft | 300 kts | 76° |
| 2026-05-05 22:03 | 23.11524 | -109.44152 | 7989 ft | 300 kts | 76° |
| 2026-05-05 22:03 | 23.12007 | -109.41949 | 7983 ft | 299 kts | 76° |
| 2026-05-05 22:03 | 23.12488 | -109.39751 | 7993 ft | 300 kts | 76° |
| 2026-05-05 22:03 | 23.12967 | -109.37578 | 8003 ft | 299 kts | 76° |
| 2026-05-05 22:04 | 23.13451 | -109.35380 | 7997 ft | 300 kts | 76° |
| 2026-05-05 22:04 | 23.13924 | -109.33143 | 8314 ft | 305 kts | 77° |
| 2026-05-05 22:04 | 23.14392 | -109.30893 | 9083 ft | 306 kts | 77° |
| 2026-05-05 22:04 | 23.14860 | -109.28630 | 9826 ft | 308 kts | 77° |
| 2026-05-05 22:05 | 23.15479 | -109.26371 | 10335 ft | 320 kts | 63° |
| 2026-05-05 22:05 | 23.16715 | -109.24263 | 10512 ft | 341 kts | 54° |
| 2026-05-05 22:05 | 23.18143 | -109.22101 | 10697 ft | 361 kts | 53° |
| 2026-05-05 22:05 | 23.19640 | -109.19856 | 11205 ft | 369 kts | 54° |
| 2026-05-05 22:06 | 23.21144 | -109.17579 | 11863 ft | 373 kts | 54° |
| 2026-05-05 22:06 | 23.22651 | -109.15271 | 12517 ft | 376 kts | 55° |
| 2026-05-05 22:06 | 23.24152 | -109.12955 | 13154 ft | 381 kts | 55° |
| 2026-05-05 22:06 | 23.25685 | -109.10578 | 13785 ft | 386 kts | 55° |
| 2026-05-05 22:07 | 23.27240 | -109.08162 | 14413 ft | 391 kts | 56° |
| 2026-05-05 22:07 | 23.28807 | -109.05724 | 14932 ft | 397 kts | 56° |
| 2026-05-05 22:07 | 23.30391 | -109.03259 | 14963 ft | 397 kts | 56° |
| 2026-05-05 22:07 | 23.31975 | -109.00795 | 14982 ft | 397 kts | 56° |
| 2026-05-05 22:08 | 23.33559 | -108.98330 | 14972 ft | 397 kts | 56° |
| 2026-05-05 22:08 | 23.35142 | -108.95859 | 14973 ft | 396 kts | 56° |
| 2026-05-05 22:08 | 23.36717 | -108.93399 | 14983 ft | 396 kts | 56° |
| 2026-05-05 22:08 | 23.38271 | -108.90973 | 14981 ft | 396 kts | 56° |
| 2026-05-05 22:09 | 23.39850 | -108.88505 | 14982 ft | 396 kts | 56° |
| 2026-05-05 22:09 | 23.41416 | -108.86028 | 14981 ft | 396 kts | 58° |
| 2026-05-05 22:09 | 23.42816 | -108.83444 | 14976 ft | 396 kts | 62° |
| 2026-05-05 22:09 | 23.44105 | -108.80793 | 14984 ft | 395 kts | 64° |
| 2026-05-05 22:10 | 23.45355 | -108.78130 | 14963 ft | 396 kts | 64° |
| 2026-05-05 22:10 | 23.46602 | -108.75457 | 14971 ft | 396 kts | 64° |
| 2026-05-05 22:10 | 23.47856 | -108.72787 | 14973 ft | 396 kts | 64° |
| 2026-05-05 22:10 | 23.49119 | -108.70126 | 14979 ft | 396 kts | 64° |
| 2026-05-05 22:11 | 23.50395 | -108.67458 | 14970 ft | 397 kts | 64° |
| 2026-05-05 22:11 | 23.51675 | -108.64795 | 14966 ft | 397 kts | 63° |
| 2026-05-05 22:11 | 23.52960 | -108.62129 | 14970 ft | 397 kts | 63° |
| 2026-05-05 22:11 | 23.54229 | -108.59501 | 14978 ft | 396 kts | 63° |
| 2026-05-05 22:12 | 23.55516 | -108.56837 | 14967 ft | 396 kts | 63° |
| 2026-05-05 22:12 | 23.56800 | -108.54180 | 14970 ft | 396 kts | 63° |
| 2026-05-05 22:12 | 23.58082 | -108.51522 | 14971 ft | 397 kts | 64° |
| 2026-05-05 22:12 | 23.59365 | -108.48859 | 14979 ft | 397 kts | 63° |
| 2026-05-05 22:13 | 23.60647 | -108.46199 | 14964 ft | 397 kts | 63° |
| 2026-05-05 22:13 | 23.61934 | -108.43531 | 14967 ft | 397 kts | 63° |
| 2026-05-05 22:13 | 23.62804 | -108.41726 | 14967 ft | 397 kts | 63° |
| 2026-05-05 22:13 | 23.64088 | -108.39062 | 14963 ft | 397 kts | 63° |
| 2026-05-05 22:14 | 23.65357 | -108.36428 | 14960 ft | 397 kts | 63° |
| 2026-05-05 22:14 | 23.66645 | -108.33752 | 14957 ft | 398 kts | 63° |
| 2026-05-05 22:14 | 23.67929 | -108.31080 | 14961 ft | 397 kts | 64° |
| 2026-05-05 22:14 | 23.69211 | -108.28408 | 14961 ft | 397 kts | 64° |
| 2026-05-05 22:15 | 23.70495 | -108.25734 | 14959 ft | 397 kts | 63° |
| 2026-05-05 22:15 | 23.71778 | -108.23065 | 14959 ft | 397 kts | 63° |
| 2026-05-05 22:15 | 23.73057 | -108.20400 | 14963 ft | 398 kts | 64° |
| 2026-05-05 22:15 | 23.74350 | -108.17700 | 15432 ft | 404 kts | 64° |
| 2026-05-05 22:16 | 23.75653 | -108.14979 | 16144 ft | 405 kts | 64° |
| 2026-05-05 22:16 | 23.76961 | -108.12245 | 16837 ft | 408 kts | 64° |
| 2026-05-05 22:16 | 23.78285 | -108.09471 | 17393 ft | 414 kts | 64° |
| 2026-05-05 22:16 | 23.79625 | -108.06667 | 17952 ft | 419 kts | 64° |
| 2026-05-05 22:17 | 23.80981 | -108.03832 | 18528 ft | 423 kts | 64° |
| 2026-05-05 22:17 | 23.82349 | -108.00967 | 19058 ft | 428 kts | 64° |
| 2026-05-05 22:17 | 23.83735 | -107.98065 | 19574 ft | 434 kts | 64° |
| 2026-05-05 22:17 | 23.85138 | -107.95128 | 20106 ft | 437 kts | 64° |
| 2026-05-05 22:18 | 23.86531 | -107.92209 | 20611 ft | 442 kts | 64° |
| 2026-05-05 22:18 | 23.87959 | -107.89212 | 21090 ft | 446 kts | 64° |
| 2026-05-05 22:18 | 23.89399 | -107.86187 | 21563 ft | 450 kts | 64° |
| 2026-05-05 22:18 | 23.90855 | -107.83128 | 22012 ft | 455 kts | 64° |
| 2026-05-05 22:19 | 23.92322 | -107.80043 | 22454 ft | 459 kts | 64° |
| 2026-05-05 22:19 | 23.93799 | -107.76936 | 22884 ft | 463 kts | 64° |
| 2026-05-05 22:19 | 23.95287 | -107.73803 | 23296 ft | 467 kts | 64° |
| 2026-05-05 22:19 | 23.96789 | -107.70642 | 23726 ft | 470 kts | 64° |
| 2026-05-05 22:20 | 23.98306 | -107.67449 | 24138 ft | 473 kts | 64° |
| 2026-05-05 22:20 | 23.99828 | -107.64243 | 24527 ft | 477 kts | 64° |
| 2026-05-05 22:20 | 24.01360 | -107.61007 | 24897 ft | 480 kts | 64° |
| 2026-05-05 22:20 | 24.02901 | -107.57750 | 25261 ft | 484 kts | 65° |
| 2026-05-05 22:21 | 24.04450 | -107.54475 | 25674 ft | 486 kts | 65° |
| 2026-05-05 22:21 | 24.06006 | -107.51183 | 26069 ft | 488 kts | 65° |
| 2026-05-05 22:21 | 24.07567 | -107.47881 | 26439 ft | 491 kts | 65° |
| 2026-05-05 22:21 | 24.09142 | -107.44548 | 26776 ft | 494 kts | 65° |
| 2026-05-05 22:22 | 24.10720 | -107.41205 | 27122 ft | 496 kts | 65° |
| 2026-05-05 22:22 | 24.12305 | -107.37840 | 27457 ft | 499 kts | 65° |
| 2026-05-05 22:22 | 24.13900 | -107.34452 | 27809 ft | 501 kts | 66° |
| 2026-05-05 22:22 | 24.15479 | -107.31099 | 28169 ft | 503 kts | 66° |
| 2026-05-05 22:23 | 24.17084 | -107.27688 | 28476 ft | 505 kts | 66° |
| 2026-05-05 22:23 | 24.18696 | -107.24259 | 28778 ft | 508 kts | 66° |
| 2026-05-05 22:23 | 24.20335 | -107.20769 | 29110 ft | 510 kts | 66° |
| 2026-05-05 22:23 | 24.21943 | -107.17345 | 29402 ft | 512 kts | 66° |
| 2026-05-05 22:24 | 24.23576 | -107.13864 | 29685 ft | 514 kts | 66° |
| 2026-05-05 22:24 | 24.25217 | -107.10363 | 29970 ft | 516 kts | 66° |
| 2026-05-05 22:24 | 24.26861 | -107.06856 | 30248 ft | 518 kts | 66° |
| 2026-05-05 22:24 | 24.28509 | -107.03335 | 30540 ft | 520 kts | 66° |
| 2026-05-05 22:25 | 24.30163 | -106.99796 | 30809 ft | 523 kts | 66° |
| 2026-05-05 22:25 | 24.31821 | -106.96251 | 31107 ft | 524 kts | 66° |
| 2026-05-05 22:25 | 24.33483 | -106.92697 | 31468 ft | 523 kts | 66° |
| 2026-05-05 22:25 | 24.35134 | -106.89164 | 31961 ft | 518 kts | 66° |
| 2026-05-05 22:26 | 24.36776 | -106.85647 | 32296 ft | 518 kts | 66° |
| 2026-05-05 22:26 | 24.38418 | -106.82123 | 32549 ft | 520 kts | 66° |
| 2026-05-05 22:26 | 24.40047 | -106.78619 | 32816 ft | 521 kts | 66° |
| 2026-05-05 22:26 | 24.41691 | -106.75085 | 33265 ft | 518 kts | 66° |
| 2026-05-05 22:27 | 24.43326 | -106.71570 | 33657 ft | 517 kts | 66° |
| 2026-05-05 22:27 | 24.44961 | -106.68051 | 33925 ft | 518 kts | 65° |
| 2026-05-05 22:27 | 24.46600 | -106.64521 | 34246 ft | 518 kts | 65° |
| 2026-05-05 22:27 | 24.48230 | -106.61006 | 34657 ft | 515 kts | 65° |
| 2026-05-05 22:28 | 24.49856 | -106.57499 | 35027 ft | 514 kts | 65° |
| 2026-05-05 22:28 | 24.51477 | -106.53999 | 35334 ft | 514 kts | 65° |
| 2026-05-05 22:28 | 24.53098 | -106.50497 | 35637 ft | 514 kts | 64° |
| 2026-05-05 22:28 | 24.54712 | -106.47004 | 36091 ft | 509 kts | 64° |
| 2026-05-05 22:29 | 24.56291 | -106.43590 | 36364 ft | 509 kts | 64° |
| 2026-05-05 22:29 | 24.57900 | -106.40111 | 36543 ft | 511 kts | 64° |
| 2026-05-05 22:29 | 24.59514 | -106.36615 | 36721 ft | 513 kts | 64° |
| 2026-05-05 22:29 | 24.61124 | -106.33122 | 36941 ft | 511 kts | 64° |
| 2026-05-05 22:30 | 24.62729 | -106.29635 | 36904 ft | 510 kts | 64° |
| 2026-05-05 22:30 | 24.65919 | -106.22701 | 36934 ft | 506 kts | 64° |
| 2026-05-05 22:31 | 24.69077 | -106.15830 | 36973 ft | 502 kts | 64° |
| 2026-05-05 22:31 | 24.72195 | -106.09035 | 36968 ft | 500 kts | 64° |
| 2026-05-05 22:32 | 24.75323 | -106.02209 | 36983 ft | 498 kts | 64° |
| 2026-05-05 22:32 | 24.78439 | -105.95392 | 36980 ft | 499 kts | 64° |
| 2026-05-05 22:33 | 24.81554 | -105.88575 | 36970 ft | 499 kts | 64° |
| 2026-05-05 22:33 | 24.84678 | -105.81727 | 36989 ft | 500 kts | 64° |
| 2026-05-05 22:34 | 24.87795 | -105.74879 | 36989 ft | 501 kts | 64° |
| 2026-05-05 22:34 | 24.90919 | -105.68010 | 37010 ft | 502 kts | 64° |
| 2026-05-05 22:35 | 24.94028 | -105.61165 | 37022 ft | 504 kts | 64° |
| 2026-05-05 22:35 | 24.97173 | -105.54230 | 37036 ft | 506 kts | 64° |
| 2026-05-05 22:36 | 25.00322 | -105.47273 | 37052 ft | 508 kts | 64° |
| 2026-05-05 22:36 | 25.03481 | -105.40282 | 37049 ft | 510 kts | 64° |
| 2026-05-05 22:37 | 25.06647 | -105.33268 | 37056 ft | 511 kts | 64° |
| 2026-05-05 22:37 | 25.09813 | -105.26241 | 37042 ft | 512 kts | 64° |
| 2026-05-05 22:38 | 25.12982 | -105.19203 | 37047 ft | 511 kts | 64° |
| 2026-05-05 22:38 | 25.16137 | -105.12178 | 37055 ft | 511 kts | 64° |
| 2026-05-05 22:39 | 25.19285 | -105.05158 | 37044 ft | 509 kts | 64° |
| 2026-05-05 22:39 | 25.22401 | -104.98206 | 37021 ft | 508 kts | 64° |
| 2026-05-05 22:40 | 25.25526 | -104.91218 | 37014 ft | 506 kts | 65° |
| 2026-05-05 22:40 | 25.28111 | -104.84031 | 37018 ft | 502 kts | 78° |
| 2026-05-05 22:41 | 25.29622 | -104.76519 | 37013 ft | 500 kts | 81° |
| 2026-05-05 22:41 | 25.31021 | -104.68987 | 37008 ft | 500 kts | 81° |
| 2026-05-05 22:42 | 25.32489 | -104.61470 | 37009 ft | 501 kts | 80° |
| 2026-05-05 22:42 | 25.33998 | -104.53982 | 36998 ft | 503 kts | 80° |
| 2026-05-05 22:43 | 25.35529 | -104.46428 | 36989 ft | 504 kts | 80° |
| 2026-05-05 22:43 | 25.37057 | -104.38856 | 37001 ft | 505 kts | 80° |
| 2026-05-05 22:44 | 25.38583 | -104.31264 | 36992 ft | 506 kts | 80° |
| 2026-05-05 22:44 | 25.40098 | -104.23686 | 36983 ft | 507 kts | 80° |
| 2026-05-05 22:45 | 25.41615 | -104.16061 | 36975 ft | 507 kts | 80° |
| 2026-05-05 22:45 | 25.43136 | -104.08422 | 36963 ft | 508 kts | 80° |
| 2026-05-05 22:46 | 25.44652 | -104.00784 | 36949 ft | 509 kts | 80° |
| 2026-05-05 22:46 | 25.46167 | -103.93141 | 36944 ft | 508 kts | 80° |
| 2026-05-05 22:47 | 25.47665 | -103.85547 | 36934 ft | 508 kts | 80° |
| 2026-05-05 22:47 | 25.49160 | -103.77912 | 36930 ft | 506 kts | 80° |
| 2026-05-05 22:48 | 25.50650 | -103.70294 | 36913 ft | 505 kts | 80° |
| 2026-05-05 22:48 | 25.52137 | -103.62695 | 36916 ft | 504 kts | 80° |
| 2026-05-05 22:49 | 25.53609 | -103.55153 | 36916 ft | 504 kts | 80° |
| 2026-05-05 22:49 | 25.55083 | -103.47579 | 36899 ft | 503 kts | 80° |
| 2026-05-05 22:50 | 25.57322 | -103.40237 | 36906 ft | 505 kts | 63° |
| 2026-05-05 22:50 | 25.61282 | -103.33842 | 36931 ft | 503 kts | 50° |
| 2026-05-05 22:51 | 25.65772 | -103.27873 | 36909 ft | 503 kts | 49° |
| 2026-05-05 22:51 | 25.70231 | -103.21870 | 36917 ft | 504 kts | 50° |
| 2026-05-05 22:52 | 25.74648 | -103.15821 | 36905 ft | 504 kts | 50° |
| 2026-05-05 22:52 | 25.79034 | -103.09796 | 36910 ft | 504 kts | 50° |
| 2026-05-05 22:53 | 25.83447 | -103.03728 | 36914 ft | 505 kts | 50° |
| 2026-05-05 22:53 | 25.87860 | -102.97656 | 36902 ft | 505 kts | 50° |
| 2026-05-05 22:54 | 25.92275 | -102.91579 | 36901 ft | 505 kts | 50° |
| 2026-05-05 22:54 | 25.96657 | -102.85545 | 36908 ft | 505 kts | 50° |
| 2026-05-05 22:55 | 26.01078 | -102.79451 | 36910 ft | 505 kts | 50° |
| 2026-05-05 22:55 | 26.05503 | -102.73361 | 36898 ft | 507 kts | 50° |
| 2026-05-05 22:56 | 26.09932 | -102.67245 | 36907 ft | 508 kts | 50° |
| 2026-05-05 22:56 | 26.14349 | -102.61126 | 36913 ft | 507 kts | 50° |
| 2026-05-05 22:57 | 26.18774 | -102.54991 | 36906 ft | 509 kts | 50° |
| 2026-05-05 22:57 | 26.23208 | -102.48835 | 36907 ft | 510 kts | 50° |
| 2026-05-05 22:58 | 26.27614 | -102.42710 | 36906 ft | 510 kts | 50° |
| 2026-05-05 22:58 | 26.32054 | -102.36528 | 36913 ft | 511 kts | 50° |
| 2026-05-05 22:59 | 26.36500 | -102.30334 | 36908 ft | 511 kts | 50° |
| 2026-05-05 22:59 | 26.40941 | -102.24134 | 36903 ft | 510 kts | 50° |
| 2026-05-05 23:00 | 26.47588 | -102.14844 | 36913 ft | 510 kts | 50° |
| 2026-05-05 23:00 | 26.51976 | -102.08697 | 36899 ft | 509 kts | 50° |
| 2026-05-05 23:01 | 26.56391 | -102.02506 | 36885 ft | 510 kts | 50° |
| 2026-05-05 23:01 | 26.60058 | -101.97359 | 36892 ft | 508 kts | 50° |
| 2026-05-05 23:02 | 26.64461 | -101.91170 | 36886 ft | 508 kts | 50° |
| 2026-05-05 23:02 | 26.68847 | -101.84988 | 36878 ft | 507 kts | 50° |
| 2026-05-05 23:03 | 26.73226 | -101.78804 | 36881 ft | 508 kts | 50° |
| 2026-05-05 23:03 | 26.77613 | -101.72605 | 36885 ft | 507 kts | 50° |
| 2026-05-05 23:04 | 26.81995 | -101.66404 | 36882 ft | 507 kts | 50° |
| 2026-05-05 23:04 | 26.86374 | -101.60199 | 36867 ft | 508 kts | 50° |
| 2026-05-05 23:05 | 26.90749 | -101.53994 | 36874 ft | 508 kts | 50° |
| 2026-05-05 23:05 | 26.94895 | -101.47636 | 36855 ft | 511 kts | 60° |
| 2026-05-05 23:06 | 26.97559 | -101.40248 | 36873 ft | 512 kts | 75° |
| 2026-05-05 23:06 | 26.99459 | -101.32548 | 36853 ft | 513 kts | 76° |
| 2026-05-05 23:07 | 27.01383 | -101.24810 | 36774 ft | 516 kts | 75° |
| 2026-05-05 23:07 | 27.03365 | -101.17078 | 36769 ft | 516 kts | 75° |
| 2026-05-05 23:08 | 27.05363 | -101.09350 | 36765 ft | 516 kts | 75° |
| 2026-05-05 23:08 | 27.07358 | -101.01613 | 36762 ft | 515 kts | 75° |
| 2026-05-05 23:09 | 27.09328 | -100.93934 | 36750 ft | 515 kts | 75° |
| 2026-05-05 23:09 | 27.11302 | -100.86214 | 36784 ft | 514 kts | 75° |
| 2026-05-05 23:10 | 27.13272 | -100.78501 | 36780 ft | 514 kts | 75° |
| 2026-05-05 23:10 | 27.15238 | -100.70789 | 36773 ft | 513 kts | 75° |
| 2026-05-05 23:11 | 27.17213 | -100.63087 | 36766 ft | 513 kts | 74° |
| 2026-05-05 23:11 | 27.19189 | -100.55382 | 36757 ft | 513 kts | 74° |
| 2026-05-05 23:12 | 27.21162 | -100.47669 | 36746 ft | 514 kts | 75° |
| 2026-05-05 23:12 | 27.23130 | -100.39948 | 36740 ft | 514 kts | 74° |
| 2026-05-05 23:13 | 27.25098 | -100.32209 | 36731 ft | 514 kts | 74° |
| 2026-05-05 23:13 | 27.27046 | -100.24514 | 36732 ft | 515 kts | 75° |
| 2026-05-05 23:14 | 27.29004 | -100.16761 | 36722 ft | 516 kts | 74° |
| 2026-05-05 23:14 | 27.30964 | -100.08996 | 36710 ft | 516 kts | 74° |
| 2026-05-05 23:15 | 27.32919 | -100.01223 | 36712 ft | 517 kts | 75° |
| 2026-05-05 23:15 | 27.34850 | -99.93423 | 36720 ft | 517 kts | 75° |
| 2026-05-05 23:16 | 27.36766 | -99.85621 | 36710 ft | 518 kts | 75° |
| 2026-05-05 23:16 | 27.38683 | -99.77808 | 36700 ft | 517 kts | 75° |
| 2026-05-05 23:17 | 27.40588 | -99.70050 | 36702 ft | 517 kts | 75° |
| 2026-05-05 23:17 | 27.42496 | -99.62247 | 36705 ft | 517 kts | 75° |
| 2026-05-05 23:18 | 27.44414 | -99.54442 | 36699 ft | 516 kts | 73° |
| 2026-05-05 23:18 | 27.46545 | -99.46723 | 36705 ft | 516 kts | 72° |
| 2026-05-05 23:19 | 27.48896 | -99.39089 | 36693 ft | 515 kts | 64° |
| 2026-05-05 23:19 | 27.52034 | -99.31855 | 36693 ft | 514 kts | 61° |
| 2026-05-05 23:20 | 27.55278 | -99.24685 | 36690 ft | 513 kts | 61° |
| 2026-05-05 23:20 | 27.58467 | -99.17482 | 36700 ft | 513 kts | 62° |
| 2026-05-05 23:21 | 27.61583 | -99.10306 | 36708 ft | 512 kts | 62° |
| 2026-05-05 23:21 | 27.64697 | -99.03085 | 36718 ft | 512 kts | 62° |
| 2026-05-05 23:22 | 27.67808 | -98.95857 | 36714 ft | 512 kts | 62° |
| 2026-05-05 23:22 | 27.70916 | -98.88638 | 36721 ft | 511 kts | 62° |
| 2026-05-05 23:23 | 27.74015 | -98.81412 | 36721 ft | 511 kts | 62° |
| 2026-05-05 23:23 | 27.77119 | -98.74185 | 36732 ft | 511 kts | 62° |
| 2026-05-05 23:24 | 27.80224 | -98.66956 | 36736 ft | 511 kts | 62° |
| 2026-05-05 23:24 | 27.83321 | -98.59718 | 36740 ft | 511 kts | 62° |
| 2026-05-05 23:25 | 27.86403 | -98.52484 | 36746 ft | 511 kts | 62° |
| 2026-05-05 23:25 | 27.89465 | -98.45285 | 36750 ft | 511 kts | 62° |
| 2026-05-05 23:26 | 27.92547 | -98.38049 | 36749 ft | 511 kts | 62° |
| 2026-05-05 23:26 | 27.95624 | -98.30804 | 36758 ft | 511 kts | 62° |
| 2026-05-05 23:27 | 27.98698 | -98.23551 | 36759 ft | 511 kts | 62° |
| 2026-05-05 23:27 | 28.01763 | -98.16303 | 36758 ft | 511 kts | 62° |
| 2026-05-05 23:28 | 28.04828 | -98.09046 | 36763 ft | 511 kts | 62° |
| 2026-05-05 23:28 | 28.07893 | -98.01775 | 36763 ft | 511 kts | 62° |
| 2026-05-05 23:29 | 28.10932 | -97.94547 | 36764 ft | 512 kts | 62° |
| 2026-05-05 23:29 | 28.13998 | -97.87249 | 36775 ft | 511 kts | 62° |
| 2026-05-05 23:30 | 28.17052 | -97.79966 | 36763 ft | 512 kts | 62° |
| 2026-05-05 23:30 | 28.20105 | -97.72671 | 36776 ft | 512 kts | 62° |
| 2026-05-05 23:31 | 28.23137 | -97.65411 | 36779 ft | 512 kts | 63° |
| 2026-05-05 23:31 | 28.26185 | -97.58104 | 36776 ft | 512 kts | 62° |
| 2026-05-05 23:32 | 28.29228 | -97.50794 | 36781 ft | 513 kts | 62° |
| 2026-05-05 23:32 | 28.32448 | -97.43594 | 36761 ft | 508 kts | 49° |
| 2026-05-05 23:33 | 28.34826 | -97.40715 | 36809 ft | 495 kts | 35° |
| 2026-05-05 23:33 | 28.37481 | -97.38197 | 36792 ft | 495 kts | 33° |
| 2026-05-05 23:33 | 28.42829 | -97.33265 | 36785 ft | 496 kts | 33° |
| 2026-05-05 23:34 | 28.48161 | -97.28265 | 36783 ft | 497 kts | 34° |
| 2026-05-05 23:34 | 28.53476 | -97.23194 | 36789 ft | 499 kts | 34° |
| 2026-05-05 23:35 | 28.58749 | -97.18136 | 36788 ft | 500 kts | 34° |
| 2026-05-05 23:35 | 28.64078 | -97.13022 | 36791 ft | 500 kts | 34° |
| 2026-05-05 23:36 | 28.69405 | -97.07903 | 36677 ft | 503 kts | 34° |
| 2026-05-05 23:36 | 28.72089 | -97.05326 | 36115 ft | 506 kts | 34° |
| 2026-05-05 23:36 | 28.74772 | -97.02744 | 35530 ft | 504 kts | 34° |
| 2026-05-05 23:37 | 28.77428 | -97.00188 | 34871 ft | 505 kts | 34° |
| 2026-05-05 23:37 | 28.80116 | -96.97599 | 34194 ft | 506 kts | 34° |
| 2026-05-05 23:37 | 28.82810 | -96.95002 | 33489 ft | 508 kts | 34° |
| 2026-05-05 23:37 | 28.85520 | -96.92395 | 32702 ft | 511 kts | 34° |
| 2026-05-05 23:38 | 28.88248 | -96.89775 | 31967 ft | 513 kts | 34° |
| 2026-05-05 23:38 | 28.90987 | -96.87147 | 31194 ft | 514 kts | 34° |
| 2026-05-05 23:38 | 28.93723 | -96.84517 | 30459 ft | 515 kts | 34° |
| 2026-05-05 23:38 | 28.96450 | -96.81891 | 29918 ft | 510 kts | 34° |
| 2026-05-05 23:39 | 28.99151 | -96.79288 | 29349 ft | 506 kts | 34° |
| 2026-05-05 23:39 | 29.01826 | -96.76708 | 28778 ft | 501 kts | 34° |
| 2026-05-05 23:39 | 29.04479 | -96.74148 | 28209 ft | 497 kts | 34° |
| 2026-05-05 23:39 | 29.07080 | -96.71640 | 27653 ft | 493 kts | 34° |
| 2026-05-05 23:40 | 29.09689 | -96.69121 | 27087 ft | 488 kts | 34° |
| 2026-05-05 23:40 | 29.12277 | -96.66619 | 26526 ft | 484 kts | 34° |
| 2026-05-05 23:40 | 29.14822 | -96.64102 | 25971 ft | 481 kts | 35° |
| 2026-05-05 23:40 | 29.17318 | -96.61583 | 25423 ft | 477 kts | 36° |
| 2026-05-05 23:41 | 29.19785 | -96.59073 | 24878 ft | 473 kts | 36° |
| 2026-05-05 23:41 | 29.22232 | -96.56584 | 24323 ft | 468 kts | 36° |
| 2026-05-05 23:41 | 29.24653 | -96.54126 | 23792 ft | 464 kts | 36° |
| 2026-05-05 23:41 | 29.27062 | -96.51685 | 23252 ft | 459 kts | 36° |
| 2026-05-05 23:42 | 29.29447 | -96.49273 | 22718 ft | 455 kts | 36° |
| 2026-05-05 23:42 | 29.31811 | -96.46883 | 22183 ft | 451 kts | 36° |
| 2026-05-05 23:42 | 29.34129 | -96.44540 | 21663 ft | 447 kts | 36° |
| 2026-05-05 23:42 | 29.36454 | -96.42186 | 21133 ft | 443 kts | 36° |
| 2026-05-05 23:43 | 29.38757 | -96.39852 | 20612 ft | 439 kts | 36° |
| 2026-05-05 23:43 | 29.41033 | -96.37545 | 20088 ft | 434 kts | 36° |
| 2026-05-05 23:43 | 29.43288 | -96.35258 | 19569 ft | 431 kts | 36° |
| 2026-05-05 23:43 | 29.45527 | -96.32985 | 19043 ft | 427 kts | 37° |
| 2026-05-05 23:44 | 29.47663 | -96.30629 | 18443 ft | 429 kts | 45° |
| 2026-05-05 23:44 | 29.49507 | -96.27917 | 17764 ft | 432 kts | 51° |
| 2026-05-05 23:44 | 29.51257 | -96.25117 | 17216 ft | 428 kts | 51° |
| 2026-05-05 23:44 | 29.52966 | -96.22407 | 17032 ft | 409 kts | 50° |
| 2026-05-05 23:45 | 29.54625 | -96.19856 | 16523 ft | 400 kts | 50° |
| 2026-05-05 23:45 | 29.56113 | -96.17184 | 15971 ft | 395 kts | 59° |
| 2026-05-05 23:45 | 29.57368 | -96.14416 | 15743 ft | 381 kts | 61° |
| 2026-05-05 23:45 | 29.58567 | -96.11763 | 15399 ft | 372 kts | 60° |
| 2026-05-05 23:46 | 29.59784 | -96.09131 | 14564 ft | 375 kts | 60° |
| 2026-05-05 23:46 | 29.61012 | -96.06477 | 13791 ft | 374 kts | 60° |
| 2026-05-05 23:46 | 29.62238 | -96.03864 | 13561 ft | 369 kts | 60° |
| 2026-05-05 23:46 | 29.63463 | -96.01286 | 13236 ft | 366 kts | 60° |
| 2026-05-05 23:47 | 29.64677 | -95.98737 | 12859 ft | 362 kts | 60° |
| 2026-05-05 23:47 | 29.65864 | -95.96236 | 12723 ft | 351 kts | 60° |
| 2026-05-05 23:47 | 29.66631 | -95.94620 | 12621 ft | 345 kts | 60° |
| 2026-05-05 23:47 | 29.67761 | -95.92232 | 12474 ft | 335 kts | 61° |
| 2026-05-05 23:48 | 29.68862 | -95.89900 | 12289 ft | 329 kts | 61° |
| 2026-05-05 23:48 | 29.69952 | -95.87590 | 11959 ft | 328 kts | 61° |
| 2026-05-05 23:48 | 29.71041 | -95.85284 | 11640 ft | 326 kts | 61° |
| 2026-05-05 23:48 | 29.72121 | -95.82994 | 11299 ft | 324 kts | 62° |
| 2026-05-05 23:49 | 29.73195 | -95.80719 | 10954 ft | 323 kts | 62° |
| 2026-05-05 23:49 | 29.74271 | -95.78442 | 10613 ft | 323 kts | 62° |
| 2026-05-05 23:49 | 29.75342 | -95.76169 | 10264 ft | 323 kts | 62° |
| 2026-05-05 23:49 | 29.76398 | -95.73926 | 9920 ft | 322 kts | 63° |
| 2026-05-05 23:50 | 29.77464 | -95.71660 | 9552 ft | 322 kts | 63° |
| 2026-05-05 23:50 | 29.78530 | -95.69391 | 9152 ft | 323 kts | 63° |
| 2026-05-05 23:50 | 29.79600 | -95.67112 | 8756 ft | 324 kts | 63° |
| 2026-05-05 23:50 | 29.80670 | -95.64833 | 8402 ft | 322 kts | 63° |
| 2026-05-05 23:51 | 29.81737 | -95.62562 | 8058 ft | 321 kts | 63° |
| 2026-05-05 23:51 | 29.82796 | -95.60306 | 7718 ft | 320 kts | 63° |
| 2026-05-05 23:51 | 29.83847 | -95.58064 | 7385 ft | 317 kts | 64° |
| 2026-05-05 23:51 | 29.84896 | -95.55823 | 7051 ft | 316 kts | 64° |
| 2026-05-05 23:52 | 29.85936 | -95.53589 | 6726 ft | 315 kts | 64° |
| 2026-05-05 23:52 | 29.86958 | -95.51400 | 6404 ft | 313 kts | 64° |
| 2026-05-05 23:52 | 29.87980 | -95.49203 | 6154 ft | 307 kts | 64° |
| 2026-05-05 23:52 | 29.88939 | -95.47052 | 6036 ft | 296 kts | 72° |
| 2026-05-05 23:53 | 29.89271 | -95.44802 | 6011 ft | 279 kts | 94° |
| 2026-05-05 23:53 | 29.89265 | -95.42574 | 6001 ft | 277 kts | 95° |
| 2026-05-05 23:53 | 29.89241 | -95.40350 | 6008 ft | 277 kts | 95° |
| 2026-05-05 23:53 | 29.89219 | -95.38122 | 6008 ft | 278 kts | 95° |
| 2026-05-05 23:54 | 29.89204 | -95.35895 | 6009 ft | 279 kts | 95° |
| 2026-05-05 23:54 | 29.89195 | -95.33654 | 6003 ft | 280 kts | 94° |
| 2026-05-05 23:54 | 29.89188 | -95.31409 | 5993 ft | 280 kts | 94° |
| 2026-05-05 23:54 | 29.89179 | -95.29168 | 6001 ft | 280 kts | 95° |
| 2026-05-05 23:55 | 29.89171 | -95.26926 | 6007 ft | 279 kts | 95° |
| 2026-05-05 23:55 | 29.89164 | -95.24694 | 5997 ft | 277 kts | 95° |
| 2026-05-05 23:55 | 29.89156 | -95.22485 | 5777 ft | 274 kts | 94° |
| 2026-05-05 23:55 | 29.89155 | -95.20337 | 5530 ft | 270 kts | 95° |
| 2026-05-05 23:56 | 29.89139 | -95.18190 | 5305 ft | 264 kts | 96° |
| 2026-05-05 23:56 | 29.89077 | -95.16104 | 5069 ft | 256 kts | 97° |
| 2026-05-05 23:56 | 29.88987 | -95.14086 | 4815 ft | 248 kts | 98° |
| 2026-05-05 23:56 | 29.88880 | -95.12123 | 4551 ft | 243 kts | 99° |
| 2026-05-05 23:57 | 29.88772 | -95.10210 | 4291 ft | 239 kts | 98° |
| 2026-05-05 23:57 | 29.88668 | -95.08320 | 4023 ft | 234 kts | 99° |
| 2026-05-05 23:57 | 29.88557 | -95.06456 | 3716 ft | 233 kts | 99° |
| 2026-05-05 23:57 | 29.88442 | -95.04602 | 3434 ft | 230 kts | 99° |
| 2026-05-05 23:58 | 29.88328 | -95.02756 | 3089 ft | 232 kts | 99° |
| 2026-05-05 23:58 | 29.88208 | -95.00904 | 3049 ft | 233 kts | 99° |
| 2026-05-05 23:58 | 29.88099 | -94.99052 | 3025 ft | 230 kts | 99° |
| 2026-05-05 23:58 | 29.87990 | -94.97227 | 3007 ft | 226 kts | 100° |
| 2026-05-05 23:59 | 29.87874 | -94.95408 | 3014 ft | 229 kts | 99° |
| 2026-05-05 23:59 | 29.87972 | -94.93543 | 3030 ft | 236 kts | 88° |
| 2026-05-05 23:59 | 29.88166 | -94.91682 | 3022 ft | 237 kts | 89° |
| 2026-05-05 23:59 | 29.88351 | -94.89802 | 3012 ft | 236 kts | 89° |
| 2026-05-06 00:00 | 29.88532 | -94.87926 | 3021 ft | 235 kts | 89° |
| 2026-05-06 00:00 | 29.88714 | -94.86052 | 3027 ft | 235 kts | 88° |
| 2026-05-06 00:00 | 29.89037 | -94.84201 | 3005 ft | 240 kts | 70° |
| 2026-05-06 00:00 | 29.90084 | -94.82718 | 3022 ft | 243 kts | 36° |
| 2026-05-06 00:01 | 29.91653 | -94.82052 | 3019 ft | 242 kts | 2° |
| 2026-05-06 00:01 | 29.93271 | -94.82377 | 3027 ft | 236 kts | 335° |
| 2026-05-06 00:01 | 29.94785 | -94.83142 | 3031 ft | 241 kts | 333° |
| 2026-05-06 00:01 | 29.96319 | -94.83981 | 3029 ft | 245 kts | 332° |
| 2026-05-06 00:02 | 29.97849 | -94.84826 | 3015 ft | 241 kts | 330° |
| 2026-05-06 00:02 | 29.99087 | -94.86054 | 3012 ft | 232 kts | 293° |
| 2026-05-06 00:02 | 29.99373 | -94.87795 | 3040 ft | 219 kts | 261° |
| 2026-05-06 00:02 | 29.99307 | -94.89558 | 3025 ft | 221 kts | 263° |
| 2026-05-06 00:03 | 29.99280 | -94.91331 | 3015 ft | 222 kts | 264° |
| 2026-05-06 00:03 | 29.99268 | -94.93119 | 3023 ft | 224 kts | 264° |
| 2026-05-06 00:03 | 29.99265 | -94.94898 | 3027 ft | 224 kts | 266° |
| 2026-05-06 00:03 | 29.99328 | -94.96700 | 3018 ft | 225 kts | 267° |
| 2026-05-06 00:04 | 29.99376 | -94.98493 | 3016 ft | 222 kts | 265° |
| 2026-05-06 00:04 | 29.99392 | -95.00271 | 3030 ft | 222 kts | 265° |
| 2026-05-06 00:04 | 29.99393 | -95.02053 | 3022 ft | 222 kts | 265° |
| 2026-05-06 00:04 | 29.99391 | -95.03829 | 3010 ft | 221 kts | 264° |
| 2026-05-06 00:05 | 29.99378 | -95.07363 | 3014 ft | 220 kts | 264° |
| 2026-05-06 00:05 | 29.99374 | -95.09121 | 3014 ft | 219 kts | 264° |
| 2026-05-06 00:05 | 29.99370 | -95.10878 | 3006 ft | 217 kts | 264° |
| 2026-05-06 00:06 | 29.99367 | -95.12592 | 3001 ft | 210 kts | 264° |
| 2026-05-06 00:06 | 29.99364 | -95.14265 | 2988 ft | 206 kts | 264° |
| 2026-05-06 00:06 | 29.99362 | -95.15916 | 2885 ft | 206 kts | 264° |
| 2026-05-06 00:06 | 29.99357 | -95.17578 | 2632 ft | 209 kts | 265° |
| 2026-05-06 00:07 | 29.99353 | -95.19283 | 2348 ft | 216 kts | 266° |
| 2026-05-06 00:07 | 29.99353 | -95.20995 | 2063 ft | 207 kts | 266° |
| 2026-05-06 00:07 | 29.99352 | -95.22595 | 1788 ft | 192 kts | 266° |
| 2026-05-06 00:07 | 29.99350 | -95.24051 | 1564 ft | 175 kts | 266° |
| 2026-05-06 00:08 | 29.99348 | -95.25408 | 1321 ft | 163 kts | 267° |
| 2026-05-06 00:08 | 29.99347 | -95.26680 | 1108 ft | 155 kts | 266° |
| 2026-05-06 00:08 | 29.99341 | -95.27925 | 910 ft | 156 kts | 267° |
| 2026-05-06 00:08 | 29.99344 | -95.29176 | 698 ft | 156 kts | 266° |
| 2026-05-06 00:09 | 29.99345 | -95.30427 | 499 ft | 154 kts | 266° |
| 2026-05-06 00:09 | 29.99353 | -95.31648 | 356 ft | 158 kts | 264° |
| 2026-05-06 00:09 | 29.99348 | -95.32897 | 121 ft | 147 kts | 266° |
| 2026-05-06 00:09 | 29.99338 | -95.33967 | 104 ft | 115 kts | 269° |
| 2026-05-06 00:10 | 29.99338 | -95.34724 | 106 ft | 73 kts | 269° |
| 2026-05-06 00:10 | 29.99339 | -95.35164 | 108 ft | 39 kts | 274° |
| 2026-05-06 00:10 | 29.99244 | -95.35280 | 106 ft | 23 kts | 177° |
| 2026-05-06 00:10 | 29.99222 | -95.35278 | 106 ft | 0 kts | 178° |
| 2026-05-06 00:11 | 29.99219 | -95.35278 | 106 ft | 0 kts | 178° |
| 2026-05-06 00:11 | 29.99216 | -95.35278 | 104 ft | 1 kts | 178° |
| 2026-05-06 00:11 | 29.99213 | -95.35278 | 106 ft | 0 kts | 177° |
| 2026-05-06 00:11 | 29.99201 | -95.35273 | 106 ft | 4 kts | 153° |
| 2026-05-06 00:12 | 29.99176 | -95.35206 | 106 ft | 14 kts | 94° |
| 2026-05-06 00:12 | 29.99176 | -95.35077 | 106 ft | 17 kts | 90° |
| 2026-05-06 00:12 | 29.99176 | -95.34947 | 106 ft | 16 kts | 90° |
| 2026-05-06 00:12 | 29.99181 | -95.34810 | 105 ft | 19 kts | 89° |
| 2026-05-06 00:13 | 29.99183 | -95.34647 | 106 ft | 22 kts | 89° |
| 2026-05-06 00:13 | 29.99181 | -95.34461 | 106 ft | 24 kts | 92° |
| 2026-05-06 00:13 | 29.99178 | -95.34274 | 106 ft | 23 kts | 89° |
| 2026-05-06 00:13 | 29.99182 | -95.34083 | 106 ft | 25 kts | 89° |
| 2026-05-06 00:14 | 29.99183 | -95.33892 | 106 ft | 23 kts | 90° |
| 2026-05-06 00:14 | 29.99183 | -95.33710 | 106 ft | 22 kts | 91° |
| 2026-05-06 00:14 | 29.99179 | -95.33533 | 106 ft | 22 kts | 90° |
| 2026-05-06 00:14 | 29.99179 | -95.33362 | 106 ft | 21 kts | 90° |
| 2026-05-06 00:15 | 29.99179 | -95.33197 | 106 ft | 20 kts | 89° |
| 2026-05-06 00:15 | 29.99170 | -95.33058 | 106 ft | 14 kts | 118° |
| 2026-05-06 00:15 | 29.99087 | -95.33026 | 106 ft | 13 kts | 181° |
| 2026-05-06 00:15 | 29.98993 | -95.33026 | 106 ft | 15 kts | 179° |
| 2026-05-06 00:16 | 29.98884 | -95.33026 | 106 ft | 17 kts | 181° |
| 2026-05-06 00:16 | 29.98760 | -95.33027 | 106 ft | 19 kts | 180° |
| 2026-05-06 00:16 | 29.98627 | -95.33025 | 106 ft | 19 kts | 179° |
| 2026-05-06 00:16 | 29.98501 | -95.33021 | 106 ft | 18 kts | 178° |
| 2026-05-06 00:17 | 29.98379 | -95.33017 | 106 ft | 17 kts | 182° |
| 2026-05-06 00:17 | 29.98300 | -95.33092 | 106 ft | 16 kts | 264° |
| 2026-05-06 00:17 | 29.98299 | -95.33217 | 106 ft | 15 kts | 270° |
| 2026-05-06 00:17 | 29.98301 | -95.33336 | 106 ft | 14 kts | 272° |
| 2026-05-06 00:18 | 29.98301 | -95.33449 | 106 ft | 14 kts | 269° |
| 2026-05-06 00:18 | 29.98301 | -95.33555 | 106 ft | 13 kts | 272° |
| 2026-05-06 00:18 | 29.98320 | -95.33641 | 106 ft | 9 kts | 313° |
| 2026-05-06 00:18 | 29.98365 | -95.33660 | 106 ft | 4 kts | 5° |
| 2026-05-06 00:19 | 29.98392 | -95.33658 | 105 ft | 4 kts | 1° |
| 2026-05-06 00:19 | 29.98417 | -95.33654 | 106 ft | 4 kts | 25° |
| 2026-05-06 00:19 | 29.98427 | -95.33629 | 106 ft | 4 kts | 83° |
| 2026-05-06 00:19 | 29.98428 | -95.33601 | 106 ft | 3 kts | 89° |
| 2026-05-06 00:20 | 29.98428 | -95.33590 | 106 ft | 0 kts | 90° |